Seikkailu — OJ2717 — position and weather

sailwx.info

Track history (hours):
 
Tides and Currents Weather Stations Pressure Air Temp Water Temp Dewpoint Dewpoint Depression Visibility Wind Speed Wind Dir Waves Ship Positions

Seikkailu

Last reported at 2017-Aug-04 20:43 UTC. Time now 2017-Aug-24 06:50 UTC.
Position N 59°38' E 025°01'.
Warning: this ship's position is 19 days out of date.

Length 10 m.

Type: Pleasure craft. MMSI: 230120280.

Date/timePositionNaut miles runAvg speedWind from/ knotsBaromVisibWave heightAir tempDewpointWater temp
2017-Aug-04 20:43N 59°38' E 025°01'2 5.7
2017-Aug-04 20:25N 59°40' E 024°58'3 6.6
2017-Aug-04 19:59N 59°39' E 024°53'3 6.3
2017-Aug-04 19:30N 59°37' E 024°47'3 5.3
2017-Aug-04 19:00N 59°36' E 024°43'3 5.8
2017-Aug-04 18:30N 59°33' E 024°44'3 6.5
2017-Aug-04 18:00N 59°30' E 024°45'2 4.6
2017-Aug-04 17:30N 59°28' E 024°47'1 2.4
2017-Aug-04 16:59N 59°27' E 024°46'0 0.3
2017-Aug-04 16:30N 59°27' E 024°46'0 0.0
2017-Aug-04 16:00N 59°27' E 024°46'0 0.0
2017-Aug-04 15:29N 59°27' E 024°46'0 0.0
2017-Aug-04 14:58N 59°27' E 024°46'0 0.0
2017-Aug-04 14:00N 59°27' E 024°46'0 0.0
2017-Aug-04 13:25N 59°27' E 024°46'0 0.0
2017-Aug-04 12:59N 59°27' E 024°46'0 0.0
2017-Aug-04 12:29N 59°27' E 024°46'0 0.0
2017-Aug-04 11:59N 59°27' E 024°46'0 0.0
2017-Aug-04 11:28N 59°27' E 024°46'0 0.0
2017-Aug-04 10:59N 59°27' E 024°46'0 0.0
2017-Aug-04 10:29N 59°27' E 024°46'0 0.0
2017-Aug-04 09:59N 59°27' E 024°46'0 0.0
2017-Aug-04 09:30N 59°27' E 024°46'0 0.0
2017-Aug-04 09:00N 59°27' E 024°46'0 0.0
2017-Aug-04 08:30N 59°27' E 024°46'0 0.0
2017-Aug-04 08:00N 59°27' E 024°46'0 0.0
2017-Aug-04 07:28N 59°27' E 024°46'0 0.0
2017-Aug-04 06:58N 59°27' E 024°46'0 0.0
2017-Aug-04 06:28N 59°27' E 024°46'0 0.0
2017-Aug-04 05:56N 59°27' E 024°46'0 0.0
2017-Aug-04 05:25N 59°27' E 024°46'0 0.0
2017-Aug-04 04:55N 59°27' E 024°46'0 0.0
2017-Aug-04 04:28N 59°27' E 024°46'0 0.0
2017-Aug-04 03:54N 59°27' E 024°46'0 0.0
2017-Aug-04 03:30N 59°27' E 024°46'0 0.0
2017-Aug-04 03:00N 59°27' E 024°46'0 0.0
2017-Aug-04 02:30N 59°27' E 024°46'0 0.0
2017-Aug-04 02:00N 59°27' E 024°46'0 0.0
2017-Aug-04 01:28N 59°27' E 024°46'0 0.0
2017-Aug-04 00:59N 59°27' E 024°46'0 0.0
2017-Aug-04 00:30N 59°27' E 024°46'0 0.0
2017-Aug-03 23:59N 59°27' E 024°46'0 0.0
2017-Aug-03 23:30N 59°27' E 024°46'0 0.0
2017-Aug-03 23:00N 59°27' E 024°46'0 0.0
2017-Aug-03 22:30N 59°27' E 024°46'0 0.0
2017-Aug-03 22:01N 59°27' E 024°46'0 0.0
2017-Aug-03 21:29N 59°27' E 024°46'0 0.0
2017-Aug-03 20:59N 59°27' E 024°46'0 0.0
2017-Aug-03 20:29N 59°27' E 024°46'0 0.0
2017-Aug-03 20:00N 59°27' E 024°46'0 0.0
2017-Aug-03 19:28N 59°27' E 024°46'0 0.0
2017-Aug-03 18:58N 59°27' E 024°46'0 0.0
2017-Aug-03 18:30N 59°27' E 024°46'0 0.0
2017-Aug-03 18:00N 59°27' E 024°46'0 0.0
2017-Aug-03 17:28N 59°27' E 024°46'0 0.0
2017-Aug-03 16:57N 59°27' E 024°46'0 0.0
2017-Aug-03 16:30N 59°27' E 024°46'0 0.0
2017-Aug-03 16:00N 59°27' E 024°46'0 0.0
2017-Aug-03 15:29N 59°27' E 024°46'0 0.0
2017-Aug-03 14:59N 59°27' E 024°46'0 0.0
2017-Aug-03 13:58N 59°27' E 024°46'0 0.0
2017-Aug-03 13:28N 59°27' E 024°46'0 0.0
2017-Aug-03 12:58N 59°27' E 024°46'0 0.0
2017-Aug-03 12:28N 59°27' E 024°46'0 0.0
2017-Aug-03 12:00N 59°27' E 024°46'0 0.0
2017-Aug-03 11:30N 59°27' E 024°46'0 0.0
2017-Aug-03 10:59N 59°27' E 024°46'0 0.0
2017-Aug-03 10:28N 59°27' E 024°46'0 0.0
2017-Aug-03 09:58N 59°27' E 024°46'0 0.0
2017-Aug-03 09:29N 59°27' E 024°46'0 0.0
2017-Aug-03 08:59N 59°27' E 024°46'0 0.0
2017-Aug-03 08:30N 59°27' E 024°46'0 0.0
2017-Aug-03 08:00N 59°27' E 024°46'0 0.0
2017-Aug-03 07:29N 59°27' E 024°46'0 0.0
2017-Aug-03 06:59N 59°27' E 024°46'0 0.0
2017-Aug-03 06:30N 59°27' E 024°46'0 0.0
2017-Aug-03 05:57N 59°27' E 024°46'0 0.0
2017-Aug-03 05:30N 59°27' E 024°46'0 0.0
2017-Aug-03 05:00N 59°27' E 024°46'0 0.0
2017-Aug-03 04:28N 59°27' E 024°46'0 0.0
2017-Aug-03 03:59N 59°27' E 024°46'0 0.0
2017-Aug-03 03:30N 59°27' E 024°46'0 0.0
2017-Aug-03 03:00N 59°27' E 024°46'0 0.0
2017-Aug-03 02:30N 59°27' E 024°46'0 0.0
2017-Aug-03 01:59N 59°27' E 024°46'0 0.0
2017-Aug-03 01:30N 59°27' E 024°46'0 0.0
2017-Aug-03 00:58N 59°27' E 024°46'0 0.0
2017-Aug-03 00:28N 59°27' E 024°46'0 0.0
2017-Aug-02 23:59N 59°27' E 024°46'0 0.0
2017-Aug-02 23:28N 59°27' E 024°46'0 0.0
2017-Aug-02 22:58N 59°27' E 024°46'0 0.0
2017-Aug-02 22:30N 59°27' E 024°46'0 0.0
2017-Aug-02 22:00N 59°27' E 024°46'0 0.0
2017-Aug-02 21:28N 59°27' E 024°46'0 0.0
2017-Aug-02 20:58N 59°27' E 024°46'0 0.0
2017-Aug-02 20:30N 59°27' E 024°46'0 0.0
2017-Aug-02 20:00N 59°27' E 024°46'0 0.0
2017-Aug-02 19:29N 59°27' E 024°46'0 0.0
2017-Aug-02 18:56N 59°27' E 024°46'0 0.0
2017-Aug-02 18:29N 59°27' E 024°46'1 2.1
2017-Aug-02 18:00N 59°27' E 024°46'3 6.8
2017-Aug-02 17:31N 59°30' E 024°43'4 7.0
2017-Aug-02 16:59N 59°32' E 024°36'2 3.9
2017-Aug-02 16:27N 59°33' E 024°33'0 0.0
2017-Aug-02 15:39N 59°33' E 024°33'0 0.0
2017-Aug-02 15:24N 59°33' E 024°33'0 0.0
2017-Aug-02 15:00N 59°33' E 024°33'0 0.0
2017-Aug-02 13:24N 59°33' E 024°33'0 0.0
2017-Aug-02 12:48N 59°33' E 024°33'0 0.0
2017-Aug-02 12:24N 59°33' E 024°33'0 0.0
2017-Aug-02 11:52N 59°33' E 024°33'0 0.0
2017-Aug-02 11:27N 59°33' E 024°33'0 0.0
2017-Aug-02 10:51N 59°33' E 024°33'0 0.0
2017-Aug-02 03:54N 59°33' E 024°33'0 0.0
2017-Aug-02 02:48N 59°33' E 024°33'0 0.0
2017-Aug-02 02:30N 59°33' E 024°33'  
2017-Jul-29 11:33N 59°33' E 022°46'0 4.5
2017-Jul-29 11:30N 59°33' E 022°46'2 4.7
2017-Jul-29 10:59N 59°34' E 022°42'2 4.7
2017-Jul-29 10:30N 59°36' E 022°38'2 4.4
2017-Jul-29 10:01N 59°37' E 022°35'3 4.9
2017-Jul-29 09:30N 59°39' E 022°31'3 5.8
2017-Jul-29 08:55N 59°41' E 022°26'2 4.7
2017-Jul-29 08:28N 59°42' E 022°23'2 4.4
2017-Jul-29 08:00N 59°44' E 022°20'3 4.5
2017-Jul-29 07:19N 59°47' E 022°18'  
2017-Jul-26 10:09N 59°53' E 021°59'1 4.6
2017-Jul-26 09:55N 59°53' E 021°56'2 4.7
2017-Jul-26 09:30N 59°54' E 021°53'2 4.5
2017-Jul-26 09:00N 59°54' E 021°48'3 5.7
2017-Jul-26 08:30N 59°54' E 021°43'1 2.1
2017-Jul-26 07:59N 59°54' E 021°41'0 0.2
2017-Jul-26 07:29N 59°54' E 021°41'0 0.0
2017-Jul-26 06:59N 59°54' E 021°41'0 0.0
2017-Jul-26 06:26N 59°54' E 021°41'0 0.0
2017-Jul-26 05:53N 59°54' E 021°41'0 0.0
2017-Jul-26 05:29N 59°54' E 021°41'0 0.0
2017-Jul-26 04:53N 59°54' E 021°41'0 0.0
2017-Jul-26 04:29N 59°54' E 021°41'0 0.0
2017-Jul-26 03:59N 59°54' E 021°41'0 0.0
2017-Jul-26 03:26N 59°54' E 021°41'0 0.0
2017-Jul-26 02:59N 59°54' E 021°41'0 0.0
2017-Jul-26 02:29N 59°54' E 021°41'0 0.0
2017-Jul-26 01:59N 59°54' E 021°41'0 0.0
2017-Jul-26 01:29N 59°54' E 021°41'0 0.0
2017-Jul-26 00:56N 59°54' E 021°41'0 0.0
2017-Jul-26 00:29N 59°54' E 021°41'0 0.0
2017-Jul-25 23:59N 59°54' E 021°41'0 0.0
2017-Jul-25 23:20N 59°54' E 021°41'0 0.0
2017-Jul-25 22:47N 59°54' E 021°41'0 0.0
2017-Jul-25 22:29N 59°54' E 021°41'0 0.0
2017-Jul-25 21:59N 59°54' E 021°41'0 0.0
2017-Jul-25 21:29N 59°54' E 021°41'0 0.0
2017-Jul-25 20:56N 59°54' E 021°41'  
Track history (hours):
 
Tides and Currents Weather Stations Pressure Air Temp Water Temp Dewpoint Dewpoint Depression Visibility Wind Speed Wind Dir Waves Ship Positions

Seikkailu

Last reported at 2017-Aug-04 20:43 UTC. Time now 2017-Aug-24 06:50 UTC.
Position N 59°38' E 025°01'.
Warning: this ship's position is 19 days out of date.

Length 10 m.

Type: Pleasure craft. MMSI: 230120280.

Date/timePositionNaut miles runAvg speedWind from/ knotsBaromVisibWave heightAir tempDewpointWater temp
2017-Aug-04 20:43N 59°38' E 025°01'2 5.7
2017-Aug-04 20:25N 59°40' E 024°58'3 6.6
2017-Aug-04 19:59N 59°39' E 024°53'3 6.3
2017-Aug-04 19:30N 59°37' E 024°47'3 5.3
2017-Aug-04 19:00N 59°36' E 024°43'3 5.8
2017-Aug-04 18:30N 59°33' E 024°44'3 6.5
2017-Aug-04 18:00N 59°30' E 024°45'2 4.6
2017-Aug-04 17:30N 59°28' E 024°47'1 2.4
2017-Aug-04 16:59N 59°27' E 024°46'0 0.3
2017-Aug-04 16:30N 59°27' E 024°46'0 0.0
2017-Aug-04 16:00N 59°27' E 024°46'0 0.0
2017-Aug-04 15:29N 59°27' E 024°46'0 0.0
2017-Aug-04 14:58N 59°27' E 024°46'0 0.0
2017-Aug-04 14:00N 59°27' E 024°46'0 0.0
2017-Aug-04 13:25N 59°27' E 024°46'0 0.0
2017-Aug-04 12:59N 59°27' E 024°46'0 0.0
2017-Aug-04 12:29N 59°27' E 024°46'0 0.0
2017-Aug-04 11:59N 59°27' E 024°46'0 0.0
2017-Aug-04 11:28N 59°27' E 024°46'0 0.0
2017-Aug-04 10:59N 59°27' E 024°46'0 0.0
2017-Aug-04 10:29N 59°27' E 024°46'0 0.0
2017-Aug-04 09:59N 59°27' E 024°46'0 0.0
2017-Aug-04 09:30N 59°27' E 024°46'0 0.0
2017-Aug-04 09:00N 59°27' E 024°46'0 0.0
2017-Aug-04 08:30N 59°27' E 024°46'0 0.0
2017-Aug-04 08:00N 59°27' E 024°46'0 0.0
2017-Aug-04 07:28N 59°27' E 024°46'0 0.0
2017-Aug-04 06:58N 59°27' E 024°46'0 0.0
2017-Aug-04 06:28N 59°27' E 024°46'0 0.0
2017-Aug-04 05:56N 59°27' E 024°46'0 0.0
2017-Aug-04 05:25N 59°27' E 024°46'0 0.0
2017-Aug-04 04:55N 59°27' E 024°46'0 0.0
2017-Aug-04 04:28N 59°27' E 024°46'0 0.0
2017-Aug-04 03:54N 59°27' E 024°46'0 0.0
2017-Aug-04 03:30N 59°27' E 024°46'0 0.0
2017-Aug-04 03:00N 59°27' E 024°46'0 0.0
2017-Aug-04 02:30N 59°27' E 024°46'0 0.0
2017-Aug-04 02:00N 59°27' E 024°46'0 0.0
2017-Aug-04 01:28N 59°27' E 024°46'0 0.0
2017-Aug-04 00:59N 59°27' E 024°46'0 0.0
2017-Aug-04 00:30N 59°27' E 024°46'0 0.0
2017-Aug-03 23:59N 59°27' E 024°46'0 0.0
2017-Aug-03 23:30N 59°27' E 024°46'0 0.0
2017-Aug-03 23:00N 59°27' E 024°46'0 0.0
2017-Aug-03 22:30N 59°27' E 024°46'0 0.0
2017-Aug-03 22:01N 59°27' E 024°46'0 0.0
2017-Aug-03 21:29N 59°27' E 024°46'0 0.0
2017-Aug-03 20:59N 59°27' E 024°46'0 0.0
2017-Aug-03 20:29N 59°27' E 024°46'0 0.0
2017-Aug-03 20:00N 59°27' E 024°46'0 0.0
2017-Aug-03 19:28N 59°27' E 024°46'0 0.0
2017-Aug-03 18:58N 59°27' E 024°46'0 0.0
2017-Aug-03 18:30N 59°27' E 024°46'0 0.0
2017-Aug-03 18:00N 59°27' E 024°46'0 0.0
2017-Aug-03 17:28N 59°27' E 024°46'0 0.0
2017-Aug-03 16:57N 59°27' E 024°46'0 0.0
2017-Aug-03 16:30N 59°27' E 024°46'0 0.0
2017-Aug-03 16:00N 59°27' E 024°46'0 0.0
2017-Aug-03 15:29N 59°27' E 024°46'0 0.0
2017-Aug-03 14:59N 59°27' E 024°46'0 0.0
2017-Aug-03 13:58N 59°27' E 024°46'0 0.0
2017-Aug-03 13:28N 59°27' E 024°46'0 0.0
2017-Aug-03 12:58N 59°27' E 024°46'0 0.0
2017-Aug-03 12:28N 59°27' E 024°46'0 0.0
2017-Aug-03 12:00N 59°27' E 024°46'0 0.0
2017-Aug-03 11:30N 59°27' E 024°46'0 0.0
2017-Aug-03 10:59N 59°27' E 024°46'0 0.0
2017-Aug-03 10:28N 59°27' E 024°46'0 0.0
2017-Aug-03 09:58N 59°27' E 024°46'0 0.0
2017-Aug-03 09:29N 59°27' E 024°46'0 0.0
2017-Aug-03 08:59N 59°27' E 024°46'0 0.0
2017-Aug-03 08:30N 59°27' E 024°46'0 0.0
2017-Aug-03 08:00N 59°27' E 024°46'0 0.0
2017-Aug-03 07:29N 59°27' E 024°46'0 0.0
2017-Aug-03 06:59N 59°27' E 024°46'0 0.0
2017-Aug-03 06:30N 59°27' E 024°46'0 0.0
2017-Aug-03 05:57N 59°27' E 024°46'0 0.0
2017-Aug-03 05:30N 59°27' E 024°46'0 0.0
2017-Aug-03 05:00N 59°27' E 024°46'0 0.0
2017-Aug-03 04:28N 59°27' E 024°46'0 0.0
2017-Aug-03 03:59N 59°27' E 024°46'0 0.0
2017-Aug-03 03:30N 59°27' E 024°46'0 0.0
2017-Aug-03 03:00N 59°27' E 024°46'0 0.0
2017-Aug-03 02:30N 59°27' E 024°46'0 0.0
2017-Aug-03 01:59N 59°27' E 024°46'0 0.0
2017-Aug-03 01:30N 59°27' E 024°46'0 0.0
2017-Aug-03 00:58N 59°27' E 024°46'0 0.0
2017-Aug-03 00:28N 59°27' E 024°46'0 0.0
2017-Aug-02 23:59N 59°27' E 024°46'0 0.0
2017-Aug-02 23:28N 59°27' E 024°46'0 0.0
2017-Aug-02 22:58N 59°27' E 024°46'0 0.0
2017-Aug-02 22:30N 59°27' E 024°46'0 0.0
2017-Aug-02 22:00N 59°27' E 024°46'0 0.0
2017-Aug-02 21:28N 59°27' E 024°46'0 0.0
2017-Aug-02 20:58N 59°27' E 024°46'0 0.0
2017-Aug-02 20:30N 59°27' E 024°46'0 0.0
2017-Aug-02 20:00N 59°27' E 024°46'0 0.0
2017-Aug-02 19:29N 59°27' E 024°46'0 0.0
2017-Aug-02 18:56N 59°27' E 024°46'0 0.0
2017-Aug-02 18:29N 59°27' E 024°46'1 2.1
2017-Aug-02 18:00N 59°27' E 024°46'3 6.8
2017-Aug-02 17:31N 59°30' E 024°43'4 7.0
2017-Aug-02 16:59N 59°32' E 024°36'2 3.9
2017-Aug-02 16:27N 59°33' E 024°33'0 0.0
2017-Aug-02 15:39N 59°33' E 024°33'0 0.0
2017-Aug-02 15:24N 59°33' E 024°33'0 0.0
2017-Aug-02 15:00N 59°33' E 024°33'0 0.0
2017-Aug-02 13:24N 59°33' E 024°33'0 0.0
2017-Aug-02 12:48N 59°33' E 024°33'0 0.0
2017-Aug-02 12:24N 59°33' E 024°33'0 0.0
2017-Aug-02 11:52N 59°33' E 024°33'0 0.0
2017-Aug-02 11:27N 59°33' E 024°33'0 0.0
2017-Aug-02 10:51N 59°33' E 024°33'0 0.0
2017-Aug-02 03:54N 59°33' E 024°33'0 0.0
2017-Aug-02 02:48N 59°33' E 024°33'0 0.0
2017-Aug-02 02:30N 59°33' E 024°33'  
2017-Jul-29 11:33N 59°33' E 022°46'0 4.5
2017-Jul-29 11:30N 59°33' E 022°46'2 4.7
2017-Jul-29 10:59N 59°34' E 022°42'2 4.7
2017-Jul-29 10:30N 59°36' E 022°38'2 4.4
2017-Jul-29 10:01N 59°37' E 022°35'3 4.9
2017-Jul-29 09:30N 59°39' E 022°31'3 5.8
2017-Jul-29 08:55N 59°41' E 022°26'2 4.7
2017-Jul-29 08:28N 59°42' E 022°23'2 4.4
2017-Jul-29 08:00N 59°44' E 022°20'3 4.5
2017-Jul-29 07:19N 59°47' E 022°18'  
2017-Jul-26 10:09N 59°53' E 021°59'1 4.6
2017-Jul-26 09:55N 59°53' E 021°56'2 4.7
2017-Jul-26 09:30N 59°54' E 021°53'2 4.5
2017-Jul-26 09:00N 59°54' E 021°48'3 5.7
2017-Jul-26 08:30N 59°54' E 021°43'1 2.1
2017-Jul-26 07:59N 59°54' E 021°41'0 0.2
2017-Jul-26 07:29N 59°54' E 021°41'0 0.0
2017-Jul-26 06:59N 59°54' E 021°41'0 0.0
2017-Jul-26 06:26N 59°54' E 021°41'0 0.0
2017-Jul-26 05:53N 59°54' E 021°41'0 0.0
2017-Jul-26 05:29N 59°54' E 021°41'0 0.0
2017-Jul-26 04:53N 59°54' E 021°41'0 0.0
2017-Jul-26 04:29N 59°54' E 021°41'0 0.0
2017-Jul-26 03:59N 59°54' E 021°41'0 0.0
2017-Jul-26 03:26N 59°54' E 021°41'0 0.0
2017-Jul-26 02:59N 59°54' E 021°41'0 0.0
2017-Jul-26 02:29N 59°54' E 021°41'0 0.0
2017-Jul-26 01:59N 59°54' E 021°41'0 0.0
2017-Jul-26 01:29N 59°54' E 021°41'0 0.0
2017-Jul-26 00:56N 59°54' E 021°41'0 0.0
2017-Jul-26 00:29N 59°54' E 021°41'0 0.0
2017-Jul-25 23:59N 59°54' E 021°41'0 0.0
2017-Jul-25 23:20N 59°54' E 021°41'0 0.0
2017-Jul-25 22:47N 59°54' E 021°41'0 0.0
2017-Jul-25 22:29N 59°54' E 021°41'0 0.0
2017-Jul-25 21:59N 59°54' E 021°41'0 0.0
2017-Jul-25 21:29N 59°54' E 021°41'0 0.0
2017-Jul-25 20:56N 59°54' E 021°41'  

Dump ship's entire track history